createdAt,value
2019-03-08T00:00:19.277Z,935.70
2019-03-08T00:01:19.312Z,935.73
2019-03-08T00:02:19.303Z,935.71
2019-03-08T00:03:19.246Z,935.72
2019-03-08T00:04:19.253Z,935.72
2019-03-08T00:05:19.244Z,935.72
2019-03-08T00:06:19.241Z,935.73
2019-03-08T00:07:19.226Z,935.72
2019-03-08T00:08:19.260Z,935.76
2019-03-08T00:09:19.254Z,935.76
2019-03-08T00:10:19.200Z,935.76
2019-03-08T00:11:19.211Z,935.76
2019-03-08T00:12:19.206Z,935.76
2019-03-08T00:13:19.173Z,935.81
2019-03-08T00:14:19.249Z,935.82
2019-03-08T00:15:19.182Z,935.85
2019-03-08T00:16:19.180Z,935.84
2019-03-08T00:17:19.178Z,935.87
2019-03-08T00:18:19.155Z,935.85
2019-03-08T00:19:19.154Z,935.85
2019-03-08T00:20:19.138Z,935.87
2019-03-08T00:21:19.113Z,935.82
2019-03-08T00:22:19.170Z,935.82
2019-03-08T00:23:19.120Z,935.79
2019-03-08T00:24:19.101Z,935.78
2019-03-08T00:25:19.120Z,935.76
2019-03-08T00:26:19.087Z,935.75
2019-03-08T00:27:19.105Z,935.80
2019-03-08T00:28:19.079Z,935.83
2019-03-08T00:29:19.085Z,935.86
2019-03-08T00:30:19.084Z,935.84
2019-03-08T00:31:19.063Z,935.83
2019-03-08T00:32:19.054Z,935.88
2019-03-08T00:33:19.046Z,935.84
2019-03-08T00:34:19.037Z,935.85
2019-03-08T00:35:19.032Z,935.83
2019-03-08T00:36:19.052Z,935.84
2019-03-08T00:37:19.019Z,935.86
2019-03-08T00:38:19.063Z,935.95
2019-03-08T00:39:19.017Z,935.92
2019-03-08T00:40:19.018Z,935.93
2019-03-08T00:41:18.987Z,935.96
2019-03-08T00:42:18.988Z,935.97
2019-03-08T00:43:19.001Z,935.99
2019-03-08T00:44:18.980Z,936.01
2019-03-08T00:45:18.963Z,936.04
2019-03-08T00:46:18.951Z,936.06
2019-03-08T00:47:18.953Z,936.07
2019-03-08T00:48:18.952Z,936.10
2019-03-08T00:49:18.954Z,936.08
2019-03-08T00:50:18.949Z,936.09
2019-03-08T00:51:18.941Z,936.11
2019-03-08T00:52:18.932Z,936.10
2019-03-08T00:53:18.931Z,936.12
2019-03-08T00:54:18.911Z,936.15
2019-03-08T00:55:18.916Z,936.13
2019-03-08T00:56:18.903Z,936.17
2019-03-08T00:57:18.894Z,936.18
2019-03-08T00:58:18.925Z,936.21
2019-03-08T00:59:18.887Z,936.21
2019-03-08T01:00:18.857Z,936.21
2019-03-08T01:01:18.889Z,936.25
2019-03-08T01:02:18.851Z,936.21
2019-03-08T01:03:18.862Z,936.22
2019-03-08T01:04:18.841Z,936.30
2019-03-08T01:05:18.836Z,936.26
2019-03-08T01:06:18.851Z,936.27
2019-03-08T01:07:18.822Z,936.26
2019-03-08T01:08:19.015Z,936.29
2019-03-08T01:09:18.821Z,936.27
2019-03-08T01:10:18.806Z,936.22
2019-03-08T01:11:18.841Z,936.22
2019-03-08T01:12:18.791Z,936.19
2019-03-08T01:13:18.786Z,936.14
2019-03-08T01:14:18.765Z,936.10
2019-03-08T01:15:18.764Z,936.11
2019-03-08T01:16:18.803Z,936.08
2019-03-08T01:17:18.773Z,936.09
2019-03-08T01:18:18.744Z,936.11
2019-03-08T01:19:18.744Z,936.09
2019-03-08T01:20:18.743Z,936.07
2019-03-08T01:21:18.740Z,936.07
2019-03-08T01:22:18.717Z,936.03
2019-03-08T01:23:18.717Z,936.02
2019-03-08T01:24:18.713Z,935.99
2019-03-08T01:25:18.688Z,935.96
2019-03-08T01:26:18.915Z,935.96
2019-03-08T01:27:18.700Z,935.94
2019-03-08T01:28:18.687Z,935.94
2019-03-08T01:29:18.670Z,935.91
2019-03-08T01:30:18.670Z,935.93
2019-03-08T01:31:18.658Z,935.88
2019-03-08T01:32:18.662Z,935.86
2019-03-08T01:33:18.646Z,935.88
2019-03-08T01:34:18.641Z,935.89
2019-03-08T01:35:19.790Z,935.91
2019-03-08T01:36:18.674Z,935.87
2019-03-08T01:37:20.436Z,935.86
2019-03-08T01:38:18.620Z,935.84
2019-03-08T01:39:18.620Z,935.84
2019-03-08T01:40:18.612Z,935.88
2019-03-08T01:41:18.613Z,935.85
2019-03-08T01:42:18.572Z,935.85
2019-03-08T01:43:18.589Z,935.86
2019-03-08T01:44:18.574Z,935.85
2019-03-08T01:45:18.613Z,935.83
2019-03-08T01:46:18.612Z,935.86
2019-03-08T01:47:18.581Z,935.87
2019-03-08T01:48:18.595Z,935.89
2019-03-08T01:49:18.551Z,935.92
2019-03-08T01:50:18.534Z,935.94
2019-03-08T01:51:18.539Z,935.97
2019-03-08T01:52:18.534Z,936.04
2019-03-08T01:53:18.506Z,936.06
2019-03-08T01:54:18.532Z,935.99
2019-03-08T01:55:18.513Z,936.03
2019-03-08T01:56:18.485Z,936.02
2019-03-08T01:57:18.520Z,936.02
2019-03-08T01:58:18.505Z,936.04
2019-03-08T01:59:18.478Z,936.02
2019-03-08T02:00:18.472Z,936.03
2019-03-08T02:01:18.452Z,936.03
2019-03-08T02:02:18.453Z,936.04
2019-03-08T02:03:18.456Z,936.04
2019-03-08T02:04:18.446Z,936.02
2019-03-08T02:05:18.446Z,936.07
2019-03-08T02:06:18.444Z,936.04
2019-03-08T02:07:18.444Z,936.05
2019-03-08T02:08:18.429Z,936.04
2019-03-08T02:09:18.416Z,936.07
2019-03-08T02:10:18.418Z,936.10
2019-03-08T02:11:18.410Z,936.14
2019-03-08T02:12:18.394Z,936.17
2019-03-08T02:13:18.398Z,936.15
2019-03-08T02:14:18.359Z,936.14
2019-03-08T02:15:18.358Z,936.17
2019-03-08T02:16:18.372Z,936.20
2019-03-08T02:17:18.376Z,936.20
2019-03-08T02:18:18.354Z,936.15
2019-03-08T02:19:18.351Z,936.16
2019-03-08T02:20:18.353Z,936.16
2019-03-08T02:21:18.344Z,936.21
2019-03-08T02:22:18.327Z,936.23
2019-03-08T02:23:18.322Z,936.24
2019-03-08T02:24:18.366Z,936.21
2019-03-08T02:25:18.302Z,936.26
2019-03-08T02:26:18.294Z,936.26
2019-03-08T02:27:18.285Z,936.28
2019-03-08T02:28:18.284Z,936.27
2019-03-08T02:29:18.269Z,936.28
2019-03-08T02:30:18.283Z,936.29
2019-03-08T02:31:18.312Z,936.26
2019-03-08T02:32:18.257Z,936.25
2019-03-08T02:33:18.265Z,936.24
2019-03-08T02:34:18.257Z,936.17
2019-03-08T02:35:18.324Z,936.17
2019-03-08T02:36:18.218Z,936.18
2019-03-08T02:37:18.245Z,936.18
2019-03-08T02:38:18.220Z,936.15
2019-03-08T02:39:18.218Z,936.18
2019-03-08T02:40:18.210Z,936.17
2019-03-08T02:41:18.183Z,936.18
2019-03-08T02:42:18.237Z,936.19
2019-03-08T02:43:18.182Z,936.19
2019-03-08T02:44:18.157Z,936.22
2019-03-08T02:45:18.181Z,936.21
2019-03-08T02:46:18.160Z,936.19
2019-03-08T02:47:18.211Z,936.15
2019-03-08T02:48:18.147Z,936.18
2019-03-08T02:49:18.135Z,936.14
2019-03-08T02:50:18.127Z,936.15
2019-03-08T02:51:18.140Z,936.17
2019-03-08T02:52:18.141Z,936.18
2019-03-08T02:53:18.096Z,936.17
2019-03-08T02:54:18.116Z,936.15
2019-03-08T02:55:18.108Z,936.13
2019-03-08T02:56:18.107Z,936.13
2019-03-08T02:57:18.073Z,936.13
2019-03-08T02:58:18.096Z,936.13
2019-03-08T02:59:18.065Z,936.11
2019-03-08T03:00:18.054Z,936.09
2019-03-08T03:01:18.070Z,936.06
2019-03-08T03:02:18.050Z,936.08
2019-03-08T03:03:18.057Z,936.08
2019-03-08T03:04:18.039Z,936.09
2019-03-08T03:05:18.048Z,936.14
2019-03-08T03:06:18.017Z,936.10
2019-03-08T03:07:18.028Z,936.10
2019-03-08T03:08:18.016Z,936.10
2019-03-08T03:09:18.006Z,936.08
2019-03-08T03:10:17.995Z,936.06
2019-03-08T03:11:17.988Z,936.11
2019-03-08T03:12:17.971Z,936.08
2019-03-08T03:13:17.995Z,936.05
2019-03-08T03:14:17.969Z,936.05
2019-03-08T03:15:18.009Z,936.03
2019-03-08T03:16:17.980Z,935.99
2019-03-08T03:17:18.002Z,935.95
2019-03-08T03:18:17.940Z,935.93
2019-03-08T03:19:17.934Z,935.94
2019-03-08T03:20:17.978Z,935.95
2019-03-08T03:21:17.932Z,935.97
2019-03-08T03:22:17.926Z,935.95
2019-03-08T03:23:17.918Z,935.98
2019-03-08T03:24:17.904Z,935.92
2019-03-08T03:25:17.892Z,935.93
2019-03-08T03:26:17.926Z,935.89
2019-03-08T03:27:17.878Z,935.88
2019-03-08T03:28:17.860Z,935.83
2019-03-08T03:29:17.878Z,935.84
2019-03-08T03:30:17.911Z,935.83
2019-03-08T03:31:17.879Z,935.83
2019-03-08T03:32:17.850Z,935.80
2019-03-08T03:33:17.850Z,935.81
2019-03-08T03:34:17.827Z,935.81
2019-03-08T03:35:17.823Z,935.81
2019-03-08T03:36:17.810Z,935.86
2019-03-08T03:37:17.825Z,935.85
2019-03-08T03:38:17.807Z,935.86
2019-03-08T03:39:17.802Z,935.85
2019-03-08T03:40:17.797Z,935.88
2019-03-08T03:41:17.769Z,935.87
2019-03-08T03:42:17.790Z,935.85
2019-03-08T03:43:17.785Z,935.86
2019-03-08T03:44:17.783Z,935.89
2019-03-08T03:45:17.771Z,935.87
2019-03-08T03:46:17.747Z,935.84
2019-03-08T03:47:17.759Z,935.83
2019-03-08T03:48:17.736Z,935.79
2019-03-08T03:49:17.743Z,935.77
2019-03-08T03:50:18.571Z,935.77
2019-03-08T03:51:17.712Z,935.76
2019-03-08T03:52:17.723Z,935.73
2019-03-08T03:53:17.721Z,935.72
2019-03-08T03:54:17.702Z,935.71
2019-03-08T03:55:17.701Z,935.64
2019-03-08T03:56:17.701Z,935.63
2019-03-08T03:57:17.687Z,935.64
2019-03-08T03:58:17.660Z,935.59
2019-03-08T03:59:17.675Z,935.58
2019-03-08T04:00:17.663Z,935.58
2019-03-08T04:01:17.645Z,935.57
2019-03-08T04:02:17.643Z,935.54
2019-03-08T04:03:17.646Z,935.55
2019-03-08T04:04:17.632Z,935.53
2019-03-08T04:05:17.635Z,935.52
2019-03-08T04:06:17.614Z,935.49
2019-03-08T04:07:17.631Z,935.52
2019-03-08T04:08:17.606Z,935.49
2019-03-08T04:09:17.604Z,935.49
2019-03-08T04:10:17.634Z,935.48
2019-03-08T04:11:17.575Z,935.49
2019-03-08T04:12:17.566Z,935.43
2019-03-08T04:13:17.621Z,935.44
2019-03-08T04:14:17.570Z,935.37
2019-03-08T04:15:17.568Z,935.40
2019-03-08T04:16:17.553Z,935.39
2019-03-08T04:17:17.554Z,935.38
2019-03-08T04:18:17.535Z,935.36
2019-03-08T04:19:17.532Z,935.37
2019-03-08T04:20:17.522Z,935.33
2019-03-08T04:21:17.525Z,935.29
2019-03-08T04:22:17.513Z,935.29
2019-03-08T04:23:17.493Z,935.34
2019-03-08T04:24:17.487Z,935.34
2019-03-08T04:25:17.505Z,935.38
2019-03-08T04:26:17.530Z,935.38
2019-03-08T04:27:17.474Z,935.33
2019-03-08T04:28:17.460Z,935.35
2019-03-08T04:29:17.474Z,935.32
2019-03-08T04:30:17.466Z,935.31
2019-03-08T04:31:17.450Z,935.27
2019-03-08T04:32:17.442Z,935.23
2019-03-08T04:33:17.444Z,935.23
2019-03-08T04:34:17.436Z,935.22
2019-03-08T04:35:17.412Z,935.22
2019-03-08T04:36:17.430Z,935.27
2019-03-08T04:37:17.416Z,935.19
2019-03-08T04:38:17.423Z,935.20
2019-03-08T04:39:17.402Z,935.15
2019-03-08T04:40:17.395Z,935.14
2019-03-08T04:41:17.366Z,935.13
2019-03-08T04:42:17.407Z,935.11
2019-03-08T04:43:17.377Z,935.11
2019-03-08T04:44:17.345Z,935.06
2019-03-08T04:45:17.362Z,935.03
2019-03-08T04:46:17.346Z,935.00
2019-03-08T04:47:17.334Z,934.99
2019-03-08T04:48:17.323Z,934.98
2019-03-08T04:49:17.311Z,934.98
2019-03-08T04:50:17.323Z,934.94
2019-03-08T04:51:17.312Z,934.92
2019-03-08T04:52:17.315Z,934.89
2019-03-08T04:53:17.348Z,934.84
2019-03-08T04:54:17.274Z,934.84
2019-03-08T04:55:17.287Z,934.84
2019-03-08T04:56:17.276Z,934.84
2019-03-08T04:57:17.253Z,934.81
2019-03-08T04:58:17.247Z,934.79
2019-03-08T04:59:17.243Z,934.79
2019-03-08T05:00:17.235Z,934.80
2019-03-08T05:01:17.240Z,934.81
2019-03-08T05:02:17.249Z,934.83
2019-03-08T05:03:17.221Z,934.84
2019-03-08T05:04:17.230Z,934.82
2019-03-08T05:05:17.193Z,934.79
2019-03-08T05:06:17.215Z,934.80
2019-03-08T05:07:17.208Z,934.77
2019-03-08T05:08:17.188Z,934.79
2019-03-08T05:09:17.195Z,934.78
2019-03-08T05:10:17.193Z,934.76
2019-03-08T05:11:17.175Z,934.74
2019-03-08T05:12:17.153Z,934.72
2019-03-08T05:13:17.189Z,934.74
2019-03-08T05:14:17.131Z,934.71
2019-03-08T05:15:17.136Z,934.71
2019-03-08T05:16:17.139Z,934.72
2019-03-08T05:17:17.109Z,934.69
2019-03-08T05:18:17.114Z,934.71
2019-03-08T05:19:17.109Z,934.71
2019-03-08T05:20:17.096Z,934.68
2019-03-08T05:21:17.065Z,934.69
2019-03-08T05:22:17.069Z,934.64
2019-03-08T05:23:17.105Z,934.66
2019-03-08T05:24:17.055Z,934.64
2019-03-08T05:25:17.060Z,934.62
2019-03-08T05:26:17.050Z,934.59
2019-03-08T05:27:17.048Z,934.58
2019-03-08T05:28:17.051Z,934.60
2019-03-08T05:29:17.237Z,934.53
2019-03-08T05:30:17.072Z,934.53
2019-03-08T05:31:17.035Z,934.53
2019-03-08T05:32:17.008Z,934.52
2019-03-08T05:33:16.994Z,934.52
2019-03-08T05:34:16.989Z,934.54
2019-03-08T05:35:16.985Z,934.56
2019-03-08T05:36:16.972Z,934.61
2019-03-08T05:37:16.968Z,934.58
2019-03-08T05:38:16.970Z,934.58
2019-03-08T05:39:16.944Z,934.58
2019-03-08T05:40:16.983Z,934.57
2019-03-08T05:41:16.933Z,934.57
2019-03-08T05:42:16.917Z,934.54
2019-03-08T05:43:16.933Z,934.54
2019-03-08T05:44:16.909Z,934.48
2019-03-08T05:45:16.900Z,934.46
2019-03-08T05:46:16.897Z,934.47
2019-03-08T05:47:16.888Z,934.42
2019-03-08T05:48:16.872Z,934.45
2019-03-08T05:49:16.886Z,934.38
2019-03-08T05:50:16.878Z,934.37
2019-03-08T05:51:16.859Z,934.36
2019-03-08T05:52:16.830Z,934.34
2019-03-08T05:53:16.856Z,934.33
2019-03-08T05:54:16.825Z,934.33
2019-03-08T05:55:16.875Z,934.31
2019-03-08T05:56:16.860Z,934.33
2019-03-08T05:57:16.825Z,934.31
2019-03-08T05:58:16.795Z,934.33
2019-03-08T05:59:16.815Z,934.30
2019-03-08T06:00:16.789Z,934.26
2019-03-08T06:01:16.798Z,934.27
2019-03-08T06:02:16.780Z,934.25
2019-03-08T06:03:16.759Z,934.18
2019-03-08T06:04:16.764Z,934.21
2019-03-08T06:05:16.740Z,934.20
2019-03-08T06:06:16.792Z,934.16
2019-03-08T06:07:16.737Z,934.21
2019-03-08T06:08:16.714Z,934.20
2019-03-08T06:09:16.725Z,934.17
2019-03-08T06:10:16.770Z,934.22
2019-03-08T06:11:16.719Z,934.22
2019-03-08T06:12:16.706Z,934.24
2019-03-08T06:13:16.685Z,934.26
2019-03-08T06:14:16.675Z,934.25
2019-03-08T06:15:16.670Z,934.17
2019-03-08T06:16:16.648Z,934.17
2019-03-08T06:17:16.676Z,934.16
2019-03-08T06:18:16.650Z,934.12
2019-03-08T06:19:16.631Z,934.08
2019-03-08T06:20:16.646Z,934.06
2019-03-08T06:21:16.622Z,934.08
2019-03-08T06:22:16.623Z,934.07
2019-03-08T06:23:16.600Z,934.06
2019-03-08T06:24:16.616Z,934.03
2019-03-08T06:25:16.600Z,934.00
2019-03-08T06:26:16.603Z,933.99
2019-03-08T06:27:16.627Z,934.00
2019-03-08T06:28:16.592Z,934.02
2019-03-08T06:29:18.174Z,934.02
2019-03-08T06:30:16.576Z,933.95
2019-03-08T06:31:16.557Z,933.91
2019-03-08T06:32:16.561Z,933.83
2019-03-08T06:33:16.548Z,933.82
2019-03-08T06:34:16.538Z,933.80
2019-03-08T06:35:16.542Z,933.79
2019-03-08T06:36:16.503Z,933.81
2019-03-08T06:37:16.523Z,933.82
2019-03-08T06:38:16.507Z,933.82
2019-03-08T06:39:16.506Z,933.82
2019-03-08T06:40:16.494Z,933.78
2019-03-08T06:41:16.491Z,933.78
2019-03-08T06:42:16.461Z,933.77
2019-03-08T06:43:16.464Z,933.75
2019-03-08T06:44:16.490Z,933.75
2019-03-08T06:45:16.698Z,933.74
2019-03-08T06:46:16.441Z,933.69
2019-03-08T06:47:16.429Z,933.66
2019-03-08T06:48:16.432Z,933.68
2019-03-08T06:49:16.417Z,933.69
2019-03-08T06:50:16.421Z,933.71
2019-03-08T06:51:16.386Z,933.68
2019-03-08T06:52:16.401Z,933.65
2019-03-08T06:53:16.388Z,933.66
2019-03-08T06:54:16.377Z,933.66
2019-03-08T06:55:16.398Z,933.67
2019-03-08T06:56:16.363Z,933.64
2019-03-08T06:57:16.397Z,933.66
2019-03-08T06:58:16.345Z,933.67
2019-03-08T06:59:16.352Z,933.67
2019-03-08T07:00:16.324Z,933.66
2019-03-08T07:01:16.317Z,933.63
2019-03-08T07:02:16.336Z,933.63
2019-03-08T07:03:16.319Z,933.62
2019-03-08T07:04:16.309Z,933.63
2019-03-08T07:05:16.288Z,933.66
2019-03-08T07:06:16.370Z,933.67
2019-03-08T07:07:16.274Z,933.71
2019-03-08T07:08:16.277Z,933.69
2019-03-08T07:09:16.299Z,933.70
2019-03-08T07:10:16.274Z,933.68
2019-03-08T07:11:16.268Z,933.70
2019-03-08T07:12:16.259Z,933.70
2019-03-08T07:13:16.247Z,933.69
2019-03-08T07:14:16.233Z,933.72
2019-03-08T07:15:16.226Z,933.75
2019-03-08T07:16:16.192Z,933.75
2019-03-08T07:17:16.204Z,933.76
2019-03-08T07:18:16.197Z,933.73
2019-03-08T07:19:16.196Z,933.72
2019-03-08T07:20:16.205Z,933.76
2019-03-08T07:21:16.213Z,933.75
2019-03-08T07:22:16.216Z,933.77
2019-03-08T07:23:16.137Z,933.73
2019-03-08T07:24:16.158Z,933.75
2019-03-08T07:25:16.157Z,933.80
2019-03-08T07:26:16.157Z,933.80
2019-03-08T07:27:16.321Z,933.80
2019-03-08T07:28:16.108Z,933.76
2019-03-08T07:29:16.127Z,933.75
2019-03-08T07:30:16.100Z,933.76
2019-03-08T07:31:16.102Z,933.76
2019-03-08T07:32:17.526Z,933.78
2019-03-08T07:33:16.079Z,933.73
2019-03-08T07:34:16.067Z,933.71
2019-03-08T07:35:16.066Z,933.73
2019-03-08T07:36:16.064Z,933.72
2019-03-08T07:37:16.045Z,933.75
2019-03-08T07:38:16.064Z,933.74
2019-03-08T07:39:16.052Z,933.72
2019-03-08T07:40:16.039Z,933.72
2019-03-08T07:41:16.015Z,933.68
2019-03-08T07:42:16.056Z,933.66
2019-03-08T07:43:16.000Z,933.67
2019-03-08T07:44:16.045Z,933.68
2019-03-08T07:45:16.037Z,933.69
2019-03-08T07:46:15.988Z,933.65
2019-03-08T07:47:15.997Z,933.66
2019-03-08T07:48:15.960Z,933.68
2019-03-08T07:49:15.952Z,933.63
2019-03-08T07:50:15.943Z,933.61
2019-03-08T07:51:15.933Z,933.63
2019-03-08T07:52:15.952Z,933.69
2019-03-08T07:53:15.950Z,933.73
2019-03-08T07:54:15.920Z,933.72
2019-03-08T07:55:15.904Z,933.72
2019-03-08T07:56:15.906Z,933.72
2019-03-08T07:57:15.892Z,933.76
2019-03-08T07:58:15.950Z,933.76
2019-03-08T07:59:15.882Z,933.75
2019-03-08T08:00:15.922Z,933.75
2019-03-08T08:01:15.857Z,933.78
2019-03-08T08:02:15.850Z,933.79
2019-03-08T08:03:15.855Z,933.79
2019-03-08T08:04:15.845Z,933.76
2019-03-08T08:05:15.823Z,933.78
2019-03-08T08:06:15.821Z,933.79
2019-03-08T08:07:15.825Z,933.82
2019-03-08T08:08:15.807Z,933.83
2019-03-08T08:09:15.820Z,933.82
2019-03-08T08:10:15.794Z,933.87
2019-03-08T08:11:15.803Z,933.90
2019-03-08T08:12:15.777Z,933.91
2019-03-08T08:13:15.813Z,933.92
2019-03-08T08:14:15.758Z,933.92
2019-03-08T08:15:15.777Z,933.92
2019-03-08T08:16:15.742Z,933.93
2019-03-08T08:17:15.749Z,933.95
2019-03-08T08:18:15.733Z,933.96
2019-03-08T08:19:15.721Z,933.93
2019-03-08T08:20:16.662Z,933.98
2019-03-08T08:21:15.732Z,933.98
2019-03-08T08:22:15.700Z,933.98
2019-03-08T08:23:15.705Z,934.01
2019-03-08T08:24:15.741Z,934.04
2019-03-08T08:25:15.659Z,934.03
2019-03-08T08:26:15.656Z,934.02
2019-03-08T08:27:15.653Z,934.01
2019-03-08T08:28:15.708Z,934.08
2019-03-08T08:29:15.685Z,934.08
2019-03-08T08:30:15.641Z,934.11
2019-03-08T08:31:15.623Z,934.12
2019-03-08T08:32:15.610Z,934.14
2019-03-08T08:33:16.732Z,934.13
2019-03-08T08:34:15.600Z,934.15
2019-03-08T08:35:15.605Z,934.18
2019-03-08T08:36:15.597Z,934.17
2019-03-08T08:37:15.634Z,934.20
2019-03-08T08:38:15.570Z,934.24
2019-03-08T08:39:15.585Z,934.31
2019-03-08T08:40:15.566Z,934.33
2019-03-08T08:41:15.561Z,934.31
2019-03-08T08:42:15.544Z,934.36
2019-03-08T08:43:15.542Z,934.37
2019-03-08T08:44:15.576Z,934.38
2019-03-08T08:45:15.509Z,934.42
2019-03-08T08:46:15.506Z,934.42
2019-03-08T08:47:15.499Z,934.45
2019-03-08T08:48:15.520Z,934.48
2019-03-08T08:49:15.488Z,934.50
2019-03-08T08:50:15.484Z,934.53
2019-03-08T08:51:15.481Z,934.53
2019-03-08T08:52:15.468Z,934.50
2019-03-08T08:53:15.470Z,934.54
2019-03-08T08:54:15.460Z,934.57
2019-03-08T08:55:15.437Z,934.58
2019-03-08T08:56:15.429Z,934.66
2019-03-08T08:57:15.421Z,934.68
2019-03-08T08:58:15.418Z,934.71
2019-03-08T08:59:15.428Z,934.74
2019-03-08T09:00:15.416Z,934.78
2019-03-08T09:01:15.403Z,934.75
2019-03-08T09:02:15.382Z,934.78
2019-03-08T09:03:15.396Z,934.75
2019-03-08T09:04:15.369Z,934.73
2019-03-08T09:05:15.369Z,934.74
2019-03-08T09:06:15.354Z,934.76
2019-03-08T09:07:15.364Z,934.77
2019-03-08T09:08:15.343Z,934.74
2019-03-08T09:09:15.332Z,934.76
2019-03-08T09:10:15.336Z,934.80
2019-03-08T09:11:15.336Z,934.75
2019-03-08T09:12:15.301Z,934.76
2019-03-08T09:13:15.309Z,934.74
2019-03-08T09:14:15.295Z,934.80
2019-03-08T09:15:15.297Z,934.81
2019-03-08T09:16:15.292Z,934.80
2019-03-08T09:17:15.282Z,934.77
2019-03-08T09:18:15.267Z,934.76
2019-03-08T09:19:15.265Z,934.77
2019-03-08T09:20:15.230Z,934.79
2019-03-08T09:21:15.255Z,934.74
2019-03-08T09:22:15.231Z,934.79
2019-03-08T09:23:15.234Z,934.80
2019-03-08T09:24:15.217Z,934.81
2019-03-08T09:25:15.303Z,934.80
2019-03-08T09:26:15.200Z,934.83
2019-03-08T09:27:15.181Z,934.79
2019-03-08T09:28:15.179Z,934.77
2019-03-08T09:29:15.193Z,934.79
2019-03-08T09:30:15.183Z,934.77
2019-03-08T09:31:15.166Z,934.75
2019-03-08T09:32:15.164Z,934.78
2019-03-08T09:33:15.155Z,934.81
2019-03-08T09:34:15.134Z,934.84
2019-03-08T09:35:15.132Z,934.85
2019-03-08T09:36:15.120Z,934.84
2019-03-08T09:37:15.120Z,934.86
2019-03-08T09:38:15.087Z,934.85
2019-03-08T09:39:15.082Z,934.89
2019-03-08T09:40:15.100Z,934.88
2019-03-08T09:41:15.088Z,934.93
2019-03-08T09:42:15.095Z,934.98
2019-03-08T09:43:15.094Z,935.00
2019-03-08T09:44:15.054Z,934.99
2019-03-08T09:45:15.079Z,935.01
2019-03-08T09:46:15.025Z,935.02
2019-03-08T09:47:15.033Z,935.05
2019-03-08T09:48:15.040Z,935.04
2019-03-08T09:49:15.027Z,935.06
2019-03-08T09:50:15.010Z,935.00
2019-03-08T09:51:14.998Z,935.07
2019-03-08T09:52:14.998Z,935.08
2019-03-08T09:53:15.006Z,935.11
2019-03-08T09:54:15.025Z,935.05
2019-03-08T09:55:14.963Z,935.09
2019-03-08T09:56:14.972Z,935.11
2019-03-08T09:57:14.969Z,935.13
2019-03-08T09:58:14.957Z,935.14
2019-03-08T09:59:14.939Z,935.15
2019-03-08T10:00:14.948Z,935.20
2019-03-08T10:01:16.904Z,935.21
2019-03-08T10:02:14.928Z,935.26
2019-03-08T10:03:14.912Z,935.27
2019-03-08T10:04:14.896Z,935.24
2019-03-08T10:05:14.915Z,935.26
2019-03-08T10:06:14.893Z,935.26
2019-03-08T10:07:14.895Z,935.26
2019-03-08T10:08:14.874Z,935.26
2019-03-08T10:09:14.885Z,935.23
2019-03-08T10:10:14.856Z,935.31
2019-03-08T10:11:14.854Z,935.32
2019-03-08T10:12:14.865Z,935.28
2019-03-08T10:13:14.841Z,935.30
2019-03-08T10:14:14.844Z,935.25
2019-03-08T10:15:14.868Z,935.27
2019-03-08T10:16:14.813Z,935.30
2019-03-08T10:17:14.816Z,935.33
2019-03-08T10:18:14.819Z,935.30
2019-03-08T10:19:14.801Z,935.32
2019-03-08T10:20:14.798Z,935.28
2019-03-08T10:21:14.782Z,935.29
2019-03-08T10:22:14.790Z,935.31
2019-03-08T10:23:19.928Z,935.35
2019-03-08T10:24:14.748Z,935.36
2019-03-08T10:25:14.737Z,935.40
2019-03-08T10:26:14.761Z,935.39
2019-03-08T10:27:14.741Z,935.43
2019-03-08T10:28:14.733Z,935.43
2019-03-08T10:29:14.722Z,935.46
2019-03-08T10:30:14.734Z,935.48
2019-03-08T10:31:14.706Z,935.50
2019-03-08T10:32:14.741Z,935.52
2019-03-08T10:33:14.702Z,935.52
2019-03-08T10:34:14.710Z,935.53
2019-03-08T10:35:23.571Z,935.57
2019-03-08T10:36:14.664Z,935.58
2019-03-08T10:37:14.669Z,935.61
2019-03-08T10:38:22.394Z,935.60
2019-03-08T10:39:14.709Z,935.58
2019-03-08T10:40:14.642Z,935.65
2019-03-08T10:41:14.705Z,935.60
2019-03-08T10:42:14.634Z,935.69
2019-03-08T10:43:14.622Z,935.67
2019-03-08T10:44:15.537Z,935.69
2019-03-08T10:45:14.606Z,935.70
2019-03-08T10:46:15.926Z,935.65
2019-03-08T10:47:14.598Z,935.71
2019-03-08T10:48:14.606Z,935.68
2019-03-08T10:49:14.576Z,935.73
2019-03-08T10:50:14.583Z,935.72
2019-03-08T10:51:14.578Z,935.73
2019-03-08T10:52:17.511Z,935.74
2019-03-08T10:53:14.546Z,935.73
2019-03-08T10:54:14.547Z,935.74
2019-03-08T10:55:14.544Z,935.80
2019-03-08T10:56:14.543Z,935.75
2019-03-08T10:57:14.543Z,935.75
2019-03-08T10:58:14.520Z,935.76
2019-03-08T10:59:14.525Z,935.80
2019-03-08T11:00:14.526Z,935.85
2019-03-08T11:01:14.497Z,935.81
2019-03-08T11:02:14.514Z,935.86
2019-03-08T11:03:14.477Z,935.85
2019-03-08T11:04:14.939Z,935.86
2019-03-08T11:05:14.471Z,935.88
2019-03-08T11:06:14.478Z,935.90
2019-03-08T11:07:14.468Z,935.84
2019-03-08T11:08:14.449Z,935.85
2019-03-08T11:09:14.436Z,935.86
2019-03-08T11:10:14.446Z,935.89
2019-03-08T11:11:14.426Z,935.93
2019-03-08T11:12:14.435Z,935.92
2019-03-08T11:13:14.424Z,935.92
2019-03-08T11:14:14.405Z,935.92
2019-03-08T11:15:23.817Z,935.93
2019-03-08T11:16:14.414Z,935.92
2019-03-08T11:17:14.405Z,935.95
2019-03-08T11:18:14.415Z,936.00
2019-03-08T11:19:14.385Z,935.97
2019-03-08T11:20:14.384Z,936.05
2019-03-08T11:21:15.058Z,936.01
2019-03-08T11:22:14.366Z,936.04
2019-03-08T11:23:14.387Z,936.01
2019-03-08T11:24:14.366Z,936.04
2019-03-08T11:25:14.341Z,936.07
2019-03-08T11:26:14.540Z,936.07
2019-03-08T11:27:14.380Z,936.12
2019-03-08T11:28:20.891Z,936.12
2019-03-08T11:29:14.329Z,936.05
2019-03-08T11:30:14.309Z,936.12
2019-03-08T11:31:14.308Z,936.11
2019-03-08T11:32:22.514Z,936.14
2019-03-08T11:33:14.295Z,936.12
2019-03-08T11:34:14.290Z,936.12
2019-03-08T11:35:14.281Z,936.12
2019-03-08T11:36:14.286Z,936.13
2019-03-08T11:37:14.280Z,936.17
2019-03-08T11:38:14.283Z,936.15
2019-03-08T11:39:14.251Z,936.17
2019-03-08T11:40:14.263Z,936.16
2019-03-08T11:41:14.630Z,936.15
2019-03-08T11:42:14.249Z,936.15
2019-03-08T11:43:14.223Z,936.16
2019-03-08T11:44:14.569Z,936.16
2019-03-08T11:45:14.205Z,936.14
2019-03-08T11:46:14.256Z,936.14
2019-03-08T11:47:14.220Z,936.11
2019-03-08T11:48:14.213Z,936.13
2019-03-08T11:49:14.199Z,936.17
2019-03-08T11:50:14.188Z,936.17
2019-03-08T11:51:14.161Z,936.16
2019-03-08T11:52:14.180Z,936.18
2019-03-08T11:53:14.167Z,936.13
2019-03-08T11:54:14.156Z,936.16
2019-03-08T11:55:14.156Z,936.19
2019-03-08T11:56:14.142Z,936.20
2019-03-08T11:57:14.151Z,936.17
2019-03-08T11:58:14.123Z,936.17
2019-03-08T11:59:14.129Z,936.20
2019-03-08T12:00:14.118Z,936.16
2019-03-08T12:01:14.126Z,936.18
2019-03-08T12:02:14.111Z,936.21
2019-03-08T12:03:14.121Z,936.17
2019-03-08T12:04:14.109Z,936.19
2019-03-08T12:05:14.092Z,936.20
2019-03-08T12:06:14.098Z,936.16
2019-03-08T12:07:14.082Z,936.17
2019-03-08T12:08:14.087Z,936.19
2019-03-08T12:09:14.077Z,936.16
2019-03-08T12:10:14.111Z,936.19
2019-03-08T12:11:14.064Z,936.22
2019-03-08T12:12:14.107Z,936.19
2019-03-08T12:13:14.050Z,936.18
2019-03-08T12:14:14.095Z,936.17
2019-03-08T12:15:14.490Z,936.25
2019-03-08T12:16:14.023Z,936.22
2019-03-08T12:17:14.068Z,936.26
2019-03-08T12:18:14.029Z,936.24
2019-03-08T12:19:14.028Z,936.25
2019-03-08T12:20:14.022Z,936.23
2019-03-08T12:21:17.494Z,936.24
2019-03-08T12:22:14.023Z,936.24
2019-03-08T12:23:13.980Z,936.21
2019-03-08T12:24:13.997Z,936.13
2019-03-08T12:25:14.030Z,936.23
2019-03-08T12:26:13.981Z,936.20
2019-03-08T12:27:13.959Z,936.23
2019-03-08T12:28:13.979Z,936.23